LBSFLBPD

Guest
Details From LBSF - Sofia
To LBPD - Plovdiv
Flight Number -
Tags generated
Created
Modified
Stats Distance 74 nm / 137 km
Max Altitude 8,300 ft / 2,530 m
Waypoints 3
Social Downloads 6
Likes 0
Share VATSIM

Download

Looking for another format? Having issues loading an existing format? Contact us
Advertisement - Login to hide

Notes

Basic altitude profile: - Ascent Rate: 2500ft/min - Ascent Speed: 250kts - Cruise Altitude: 35000ft - Cruise Speed: 420kts - Descent Rate: 1500ft/min - Descent Speed: 250kts

Route

LBSF LARAT LBPD

ID Type Via Altitude Latitude Longitude Leg Dist Tot Dist Heading (true) Name
O LBSF APT - 0 ft / 0 m 42.69713˚ 23.41672˚ - 0 nm - Sofia
LARAT FIX - 8,300 ft / 2,530 m 42.50167˚ 23.87111˚ 23 nm 23 nm 120° / 120° -
O LBPD APT - 0 ft / 0 m 42.06786˚ 24.85081˚ 50 nm 73 nm 121° / 121° Plovdiv

Altitude Profile

Advertisement - Login to hide

LBSF

Details ICAO LBSF (SOF)
Name Sofia
Region Bulgaria
Timezone Europe/Sofia (UTC+2.0)
Stats Elevation 1,741 ft / 531 m (AMSL)
Location 42.697130° 23.416722°
Runways 1
Magnetic Variation 4.934° E

METAR

LBSF 150430Z 12004KT 070V150 CAVOK M01/M01 Q1012 NOSIG

Decode

TAF

TAF LBSF 142300Z 1500/1524 VRB04KT 8000 SCT020 SCT060 BECMG 1501/1503 3000 BR TEMPO 1505/1507 1200 BR BECMG 1508/1510 11010KT 9999 PROB40 TEMPO 1518/1524 21012G24KT

Decode

Departure Runways

ID Width Length Bearing (true) Bearing (mag) Surface Threshold Offset Overrun Length
09 148 ft / 45 m 11,801 ft / 3,597 m 93.99° 89.06° Asphalt 984 ft / 300 m 525 ft / 160 m
27 148 ft / 45 m 11,801 ft / 3,597 m 274.02° 269.09° Asphalt 0 ft / 0 m 525 ft / 160 m

LBPD

Details ICAO LBPD (PDV)
Name Plovdiv
Region Bulgaria
Timezone Europe/Sofia (UTC+2.0)
Stats Elevation 597 ft / 182 m (AMSL)
Location 42.067856° 24.850814°
Runways 1
Magnetic Variation 5.066° E

METAR

LBPD 150430Z AUTO 21004KT 9999 NCD 01/00 Q1012 TEMPO 1200 BR

Decode

TAF

TAF LBPD 142300Z 1500/1524 VRB04KT 4000 BR SCT070 BECMG 1501/1503 2000 BR PROB40 TEMPO 1503/1507 0800 BCFG BKN003 BECMG 1507/1509 5000 BR BKN015 BECMG 1510/1512 10010KT SCT050 BKN070

Decode

Destination Runways

ID Width Length Bearing (true) Bearing (mag) Surface Threshold Offset Overrun Length
12 164 ft / 50 m 8,200 ft / 2,500 m 127.33° 122.26° Asphalt 0 ft / 0 m 197 ft / 60 m
30 164 ft / 50 m 8,200 ft / 2,500 m 307.35° 302.28° Asphalt 0 ft / 0 m 295 ft / 90 m

Approach Navaids

Runway Type Ident Frequency Range Bearing (true) Bearing (mag) Slope Elevation
30 Localiser IPD 109.90 MHz 18 nm / 33 km 307.33° 302.26° - 597 ft / 182 m (AMSL)
30 Glidescope IPD 109.90 MHz 10 nm / 19 km 307.34° 302.27° 3.00° 597 ft / 182 m (AMSL)

Popular Alternatives